Time;durP1;ratioP1;P1;durP2;ratioP2;P2;SDS_P1;SDS_P2;PMS_P1;PMS_P2;Temp;Humidity;BMP_temperature;BMP_pressure;BME280_temperature;BME280_humidity;BME280_pressure;Samples;Min_cycle;Max_cycle;Signal;HPM_P1;HPM_P2
2022/04/09 00:00:38;;;;;;;;;;;;;;;;;;5074919;28;20326;-49
2022/04/09 00:03:04;;;;;;;;;;;;;;;;;;5074852;28;19914;-49
2022/04/09 00:05:29;;;;;;;;;;;;;;;;;;5074559;28;20007;-48
2022/04/09 00:07:55;;;;;;;;;;;;;;;;;;5074507;28;19909;-48
2022/04/09 00:10:21;;;;;;;;;;;;;;;;;;5074460;28;19986;-49
2022/04/09 00:12:47;;;;;;;;;;;;;;;;;;5074368;28;19947;-48
2022/04/09 00:15:13;;;;;;;;;;;;;;;;;;5074340;28;19931;-48
2022/04/09 00:17:39;;;;;;;;;;;;;;;;;;5074328;28;19908;-48
2022/04/09 00:20:05;;;;;;;;;;;;;;;;;;5074289;28;19917;-48
2022/04/09 00:22:31;;;;;;;;;;;;;;;;;;5074184;28;20424;-49
2022/04/09 00:24:57;;;;;;;;;;;;;;;;;;5074016;28;19908;-47
2022/04/09 00:27:23;;;;;;;;;;;;;;;;;;5074086;28;19909;-48
2022/04/09 00:29:48;;;;;;;;;;;;;;;;;;5074039;28;19916;-47
2022/04/09 00:32:14;;;;;;;;;;;;;;;;;;5074014;28;19908;-48
2022/04/09 00:34:40;;;;;;;;;;;;;;;;;;5074004;28;19958;-48
2022/04/09 00:37:06;;;;;;;;;;;;;;;;;;5073798;28;19909;-44
2022/04/09 00:39:32;;;;;;;;;;;;;;;;;;5073804;28;19960;-46
2022/04/09 00:41:58;;;;;;;;;;;;;;;;;;5074021;28;19908;-45
2022/04/09 00:44:24;;;;;;;;;;;;;;;;;;5073806;28;19909;-44
2022/04/09 00:46:50;;;;;;;;;;;;;;;;;;5073636;28;19912;-44
2022/04/09 00:49:16;;;;;;;;;;;;;;;;;;5073631;28;19952;-44
2022/04/09 00:51:42;;;;;;;;;;;;;;;;;;5073666;28;19916;-44
2022/04/09 00:54:08;;;;;;;;;;;;;;;;;;5073864;28;20377;-44
2022/04/09 00:56:33;;;;;;;;;;;;;;;;;;5073474;28;19908;-45
2022/04/09 00:58:59;;;;;;;;;;;;;;;;;;5073410;28;19909;-44
2022/04/09 01:01:25;;;;;;;;;;;;;;;;;;5073410;28;19915;-45
2022/04/09 01:03:51;;;;;;;;;;;;;;;;;;5073280;28;19909;-44
2022/04/09 01:06:17;;;;;;;;;;;;;;;;;;5073325;28;19915;-45
2022/04/09 01:08:43;;;;;;;;;;;;;;;;;;5073021;28;19908;-45
2022/04/09 01:11:09;;;;;;;;;;;;;;;;;;5073254;28;19908;-45
2022/04/09 01:13:36;;;;;;;;;;;;;;;;;;5073285;28;20484;-45
2022/04/09 01:16:02;;;;;;;;;;;;;;;;;;5073400;28;19938;-44
2022/04/09 01:18:27;;;;;;;;;;;;;;;;;;5073393;28;19908;-45
2022/04/09 01:20:53;;;;;;;;;;;;;;;;;;5073059;28;19973;-44
2022/04/09 01:23:19;;;;;;;;;;;;;;;;;;5073010;28;19909;-44
2022/04/09 01:25:45;;;;;;;;;;;;;;;;;;5072869;28;19999;-45
2022/04/09 01:28:11;;;;;;;;;;;;;;;;;;5072941;28;19931;-45
2022/04/09 01:30:37;;;;;;;;;;;;;;;;;;5073027;28;20003;-45
2022/04/09 01:33:03;;;;;;;;;;;;;;;;;;5073079;28;19978;-46
2022/04/09 01:35:29;;;;;;;;;;;;;;;;;;5072951;28;19991;-45
2022/04/09 01:37:54;;;;;;;;;;;;;;;;;;5072699;28;19943;-44
2022/04/09 01:40:20;;;;;;;;;;;;;;;;;;5072981;28;19971;-45
2022/04/09 01:42:46;;;;;;;;;;;;;;;;;;5072778;28;19909;-45
2022/04/09 01:45:12;;;;;;;;;;;;;;;;;;5072637;28;19919;-45
2022/04/09 01:47:43;;;;;;;;;;;;;;;;;;5072757;28;19909;-44
2022/04/09 01:50:08;;;;;;;;;;;;;;;;;;5072701;28;19959;-44
2022/04/09 01:52:34;;;;;;;;;;;;;;;;;;5072646;28;20341;-45
2022/04/09 01:55:00;;;;;;;;;;;;;;;;;;5072647;28;19912;-44
2022/04/09 01:57:26;;;;;;;;;;;;;;;;;;5072571;28;19908;-44
2022/04/09 01:59:52;;;;;;;;;;;;;;;;;;5072470;28;20435;-44
2022/04/09 02:02:18;;;;;;;;;;;;;;;;;;5072448;28;19943;-44
2022/04/09 02:04:44;;;;;;;;;;;;;;;;;;5072925;28;19947;-45
2022/04/09 02:07:09;;;;;;;;;;;;;;;;;;5072411;28;19961;-44
2022/04/09 02:09:35;;;;;;;;;;;;;;;;;;5072568;28;19908;-44
2022/04/09 02:12:02;;;;;;;;;;;;;;;;;;5072442;28;19970;-46
2022/04/09 02:14:28;;;;;;;;;;;;;;;;;;5072866;28;20279;-44
2022/04/09 02:16:53;;;;;;;;;;;;;;;;;;5072262;28;19912;-45
2022/04/09 02:19:19;;;;;;;;;;;;;;;;;;5073571;28;19916;-45
2022/04/09 02:21:45;;;;;;;;;;;;;;;;;;5076512;28;20015;-45
2022/04/09 02:24:11;;;;;;;;;;;;;;;;;;5076372;28;19908;-44
2022/04/09 02:26:37;;;;;;;;;;;;;;;;;;5076548;28;19915;-44
2022/04/09 02:29:03;;;;;;;;;;;;;;;;;;5076367;28;20271;-46
2022/04/09 02:31:29;;;;;;;;;;;;;;;;;;5076330;28;19916;-44
2022/04/09 02:33:55;;;;;;;;;;;;;;;;;;5076310;28;19908;-45
2022/04/09 02:36:22;;;;;;;;;;;;;;;;;;5076625;28;19919;-44
2022/04/09 02:38:48;;;;;;;;;;;;;;;;;;5076064;28;19925;-45
2022/04/09 02:41:14;;;;;;;;;;;;;;;;;;5076076;28;19916;-44
2022/04/09 02:43:41;;;;;;;;;;;;;;;;;;5076148;28;19966;-45
2022/04/09 02:46:07;;;;;;;;;;;;;;;;;;5076100;28;19948;-44
2022/04/09 02:48:33;;;;;;;;;;;;;;;;;;5076031;28;20010;-45
2022/04/09 02:50:58;;;;;;;;;;;;;;;;;;5076042;28;20286;-44
2022/04/09 02:53:24;;;;;;;;;;;;;;;;;;5075804;28;19955;-45
2022/04/09 02:55:50;;;;;;;;;;;;;;;;;;5075786;28;19912;-44
2022/04/09 02:58:16;;;;;;;;;;;;;;;;;;5075746;28;19931;-45
2022/04/09 03:00:42;;;;;;;;;;;;;;;;;;5075653;28;19923;-44
2022/04/09 03:03:08;;;;;;;;;;;;;;;;;;5075669;28;19908;-44
2022/04/09 03:05:34;;;;;;;;;;;;;;;;;;5076011;28;19908;-45
2022/04/09 03:07:59;;;;;;;;;;;;;;;;;;5075602;28;19954;-44
2022/04/09 03:10:26;;;;;;;;;;;;;;;;;;5075506;28;19917;-45
2022/04/09 03:12:52;;;;;;;;;;;;;;;;;;5075778;28;19931;-51
2022/04/09 03:15:18;;;;;;;;;;;;;;;;;;5075435;28;19908;-44
2022/04/09 03:17:44;;;;;;;;;;;;;;;;;;5075401;28;19999;-45
2022/04/09 03:20:10;;;;;;;;;;;;;;;;;;5075646;28;19970;-46
2022/04/09 03:22:36;;;;;;;;;;;;;;;;;;5075441;28;19967;-44
2022/04/09 03:25:02;;;;;;;;;;;;;;;;;;5075352;28;19955;-44
2022/04/09 03:27:28;;;;;;;;;;;;;;;;;;5075287;28;19909;-44
2022/04/09 03:29:54;;;;;;;;;;;;;;;;;;5075168;28;19916;-45
2022/04/09 03:32:20;;;;;;;;;;;;;;;;;;5075193;28;20101;-44
2022/04/09 03:34:46;;;;;;;;;;;;;;;;;;5075026;28;20287;-45
2022/04/09 03:37:11;;;;;;;;;;;;;;;;;;5074906;28;19909;-45
2022/04/09 03:39:37;;;;;;;;;;;;;;;;;;5075039;28;19916;-44
2022/04/09 03:42:03;;;;;;;;;;;;;;;;;;5075012;28;19999;-44
2022/04/09 03:44:29;;;;;;;;;;;;;;;;;;5074846;28;19915;-45
2022/04/09 03:46:55;;;;;;;;;;;;;;;;;;5074834;28;19944;-46
2022/04/09 03:49:21;;;;;;;;;;;;;;;;;;5074874;28;19912;-45
2022/04/09 03:51:47;;;;;;;;;;;;;;;;;;5074921;28;19915;-45
2022/04/09 03:54:12;;;;;;;;;;;;;;;;;;5074974;28;20363;-46
2022/04/09 03:56:40;;;;;;;;;;;;;;;;;;5074709;28;19908;-46
2022/04/09 03:59:06;;;;;;;;;;;;;;;;;;5074879;28;19909;-45
2022/04/09 04:01:32;;;;;;;;;;;;;;;;;;5074831;28;19920;-45
2022/04/09 04:03:57;;;;;;;;;;;;;;;;;;5074739;28;19908;-45
2022/04/09 04:06:23;;;;;;;;;;;;;;;;;;5074724;28;19956;-45
2022/04/09 04:08:49;;;;;;;;;;;;;;;;;;5074732;28;20425;-44
2022/04/09 04:11:15;;;;;;;;;;;;;;;;;;5074661;28;19954;-45
2022/04/09 04:13:41;;;;;;;;;;;;;;;;;;5074576;28;19915;-45
2022/04/09 04:16:08;;;;;;;;;;;;;;;;;;5074548;28;19954;-45
2022/04/09 04:18:34;;;;;;;;;;;;;;;;;;5074805;28;19909;-45
2022/04/09 04:21:00;;;;;;;;;;;;;;;;;;5074327;28;20291;-44
2022/04/09 04:23:26;;;;;;;;;;;;;;;;;;5074380;28;19931;-45
2022/04/09 04:25:52;;;;;;;;;;;;;;;;;;5074565;28;19995;-44
2022/04/09 04:28:18;;;;;;;;;;;;;;;;;;5074323;28;20405;-46
2022/04/09 04:30:43;;;;;;;;;;;;;;;;;;5074149;28;19959;-45
2022/04/09 04:33:09;;;;;;;;;;;;;;;;;;5074186;28;20379;-45
2022/04/09 04:35:35;;;;;;;;;;;;;;;;;;5074210;28;19923;-51
2022/04/09 04:38:01;;;;;;;;;;;;;;;;;;5073909;28;19921;-48
2022/04/09 04:40:27;;;;;;;;;;;;;;;;;;5074232;28;19961;-48
2022/04/09 04:42:53;;;;;;;;;;;;;;;;;;5073472;28;19973;-49
2022/04/09 04:45:19;;;;;;;;;;;;;;;;;;5073970;28;19915;-50
2022/04/09 04:47:45;;;;;;;;;;;;;;;;;;5073853;28;19908;-49
2022/04/09 04:50:11;;;;;;;;;;;;;;;;;;5073859;28;20003;-48
2022/04/09 04:52:37;;;;;;;;;;;;;;;;;;5074153;28;19908;-50
2022/04/09 04:55:03;;;;;;;;;;;;;;;;;;5073845;28;19954;-48
2022/04/09 04:57:30;;;;;;;;;;;;;;;;;;5073742;28;19914;-49
2022/04/09 04:59:56;;;;;;;;;;;;;;;;;;5073868;28;19924;-49
2022/04/09 05:02:22;;;;;;;;;;;;;;;;;;5073775;28;19954;-48
2022/04/09 05:04:48;;;;;;;;;;;;;;;;;;5073554;28;19938;-48
2022/04/09 05:07:14;;;;;;;;;;;;;;;;;;5073481;28;20011;-48
2022/04/09 05:09:40;;;;;;;;;;;;;;;;;;5073429;28;20050;-48
2022/04/09 05:12:05;;;;;;;;;;;;;;;;;;5073772;28;19931;-48
2022/04/09 05:14:31;;;;;;;;;;;;;;;;;;5073445;28;19909;-48
2022/04/09 05:16:57;;;;;;;;;;;;;;;;;;5073301;28;19908;-47
2022/04/09 05:19:23;;;;;;;;;;;;;;;;;;5073502;28;19913;-48
2022/04/09 05:21:49;;;;;;;;;;;;;;;;;;5073261;28;20007;-49
2022/04/09 05:24:15;;;;;;;;;;;;;;;;;;5073184;28;20367;-48
2022/04/09 05:26:41;;;;;;;;;;;;;;;;;;5073118;28;19908;-48
2022/04/09 05:29:07;;;;;;;;;;;;;;;;;;5073160;28;19944;-49
2022/04/09 05:31:32;;;;;;;;;;;;;;;;;;5073197;28;20397;-48
2022/04/09 05:33:58;;;;;;;;;;;;;;;;;;5073097;28;19909;-47
2022/04/09 05:36:24;;;;;;;;;;;;;;;;;;5073311;28;19908;-48
2022/04/09 05:38:50;;;;;;;;;;;;;;;;;;5072817;28;20455;-48
2022/04/09 05:41:16;;;;;;;;;;;;;;;;;;5072828;28;19959;-48
2022/04/09 05:43:42;;;;;;;;;;;;;;;;;;5072884;28;19908;-49
2022/04/09 05:46:08;;;;;;;;;;;;;;;;;;5073213;28;19908;-48
2022/04/09 05:48:34;;;;;;;;;;;;;;;;;;5072966;28;19909;-49
2022/04/09 05:51:00;;;;;;;;;;;;;;;;;;5073141;28;19909;-47
2022/04/09 05:53:25;;;;;;;;;;;;;;;;;;5072083;28;19908;-50
2022/04/09 05:55:51;;;;;;;;;;;;;;;;;;5072615;28;19931;-48
2022/04/09 05:58:18;;;;;;;;;;;;;;;;;;5072923;28;19916;-48
2022/04/09 06:00:44;;;;;;;;;;;;;;;;;;5072624;28;19982;-48
2022/04/09 06:03:11;;;;;;;;;;;;;;;;;;5072567;28;19955;-50
2022/04/09 06:05:37;;;;;;;;;;;;;;;;;;5072760;28;19909;-49
2022/04/09 06:08:03;;;;;;;;;;;;;;;;;;5072834;28;19916;-48
2022/04/09 06:10:29;;;;;;;;;;;;;;;;;;5072677;28;20316;-48
2022/04/09 06:12:54;;;;;;;;;;;;;;;;;;5072853;28;19951;-49
2022/04/09 06:15:22;;;;;;;;;;;;;;;;;;5054588;28;19966;-48
2022/04/09 06:17:48;;;;;;;;;;;;;;;;;;5072613;28;19948;-49
2022/04/09 06:20:15;;;;;;;;;;;;;;;;;;5072444;28;19970;-49
2022/04/09 06:22:41;;;;;;;;;;;;;;;;;;5072464;28;19909;-49
2022/04/09 06:25:07;;;;;;;;;;;;;;;;;;5072775;28;20286;-48
2022/04/09 06:27:35;;;;;;;;;;;;;;;;;;5072549;28;19928;-48
2022/04/09 06:30:01;;;;;;;;;;;;;;;;;;5072379;28;19944;-49
2022/04/09 06:32:27;;;;;;;;;;;;;;;;;;5072393;28;19913;-48
2022/04/09 06:34:53;;;;;;;;;;;;;;;;;;5072374;28;19937;-48
2022/04/09 06:37:19;;;;;;;;;;;;;;;;;;5072080;28;19913;-50
2022/04/09 06:39:45;;;;;;;;;;;;;;;;;;5072303;28;19917;-47
2022/04/09 06:42:11;;;;;;;;;;;;;;;;;;5072354;28;19919;-49
2022/04/09 06:44:37;;;;;;;;;;;;;;;;;;5072374;28;19909;-47
2022/04/09 06:47:08;;;;;;;;;;;;;;;;;;5072304;28;19913;-45
2022/04/09 06:49:34;;;;;;;;;;;;;;;;;;5072558;28;19909;-45
2022/04/09 06:52:00;;;;;;;;;;;;;;;;;;5072254;28;19916;-45
2022/04/09 06:54:26;;;;;;;;;;;;;;;;;;5072147;28;20399;-46
2022/04/09 06:56:52;;;;;;;;;;;;;;;;;;5072180;28;19944;-49
2022/04/09 06:59:18;;;;;;;;;;;;;;;;;;5071819;28;20383;-47
2022/04/09 07:01:44;;;;;;;;;;;;;;;;;;5071806;28;19946;-46
2022/04/09 07:04:09;;;;;;;;;;;;;;;;;;5071894;28;20342;-46
2022/04/09 07:06:35;;;;;;;;;;;;;;;;;;5075103;28;19908;-46
2022/04/09 07:09:01;;;;;;;;;;;;;;;;;;5075643;28;19967;-46
2022/04/09 07:11:27;;;;;;;;;;;;;;;;;;5075564;28;19912;-46
2022/04/09 07:13:53;;;;;;;;;;;;;;;;;;5075489;28;19912;-45
2022/04/09 07:16:19;;;;;;;;;;;;;;;;;;5075343;28;19934;-47
2022/04/09 07:18:45;;;;;;;;;;;;;;;;;;5075129;28;19977;-46
2022/04/09 07:21:11;;;;;;;;;;;;;;;;;;5075303;28;20383;-46
2022/04/09 07:23:36;;;;;;;;;;;;;;;;;;5075007;28;19963;-46
2022/04/09 07:26:02;;;;;;;;;;;;;;;;;;5075105;28;19908;-46
2022/04/09 07:28:28;;;;;;;;;;;;;;;;;;5075165;28;19908;-45
2022/04/09 07:30:54;;;;;;;;;;;;;;;;;;5075132;28;19915;-45
2022/04/09 07:33:20;;;;;;;;;;;;;;;;;;5074994;28;19912;-46
2022/04/09 07:35:46;;;;;;;;;;;;;;;;;;5075173;28;20003;-45
2022/04/09 07:38:12;;;;;;;;;;;;;;;;;;5074822;28;19946;-47
2022/04/09 07:40:37;;;;;;;;;;;;;;;;;;5074847;28;19916;-45
2022/04/09 07:43:03;;;;;;;;;;;;;;;;;;5074796;28;19914;-44
2022/04/09 07:45:29;;;;;;;;;;;;;;;;;;5074772;28;20436;-46
2022/04/09 07:47:55;;;;;;;;;;;;;;;;;;5074673;28;19995;-45
2022/04/09 07:50:21;;;;;;;;;;;;;;;;;;5074617;28;20343;-44
2022/04/09 07:52:47;;;;;;;;;;;;;;;;;;5074630;28;19912;-46
2022/04/09 07:55:15;;;;;;;;;;;;;;;;;;5074612;28;19908;-45
2022/04/09 07:57:40;;;;;;;;;;;;;;;;;;5074840;28;19966;-46
2022/04/09 08:00:06;;;;;;;;;;;;;;;;;;5074427;28;19917;-44
2022/04/09 08:02:33;;;;;;;;;;;;;;;;;;5074467;28;20335;-45
2022/04/09 08:04:58;;;;;;;;;;;;;;;;;;5056171;28;19931;-45
2022/04/09 08:07:24;;;;;;;;;;;;;;;;;;5074344;28;20379;-47
2022/04/09 08:09:50;;;;;;;;;;;;;;;;;;5074130;28;20094;-46
2022/04/09 08:12:16;;;;;;;;;;;;;;;;;;5074306;28;19924;-46
2022/04/09 08:14:42;;;;;;;;;;;;;;;;;;5074307;28;19951;-44
2022/04/09 08:17:08;;;;;;;;;;;;;;;;;;5073441;28;19908;-44
2022/04/09 08:19:34;;;;;;;;;;;;;;;;;;5074185;28;19913;-45
2022/04/09 08:22:00;;;;;;;;;;;;;;;;;;5074266;28;19912;-44
2022/04/09 08:24:26;;;;;;;;;;;;;;;;;;5074426;28;19916;-44
2022/04/09 08:26:52;;;;;;;;;;;;;;;;;;5074376;28;19912;-45
2022/04/09 08:29:20;;;;;;;;;;;;;;;;;;5074006;28;20007;-45
2022/04/09 08:31:47;;;;;;;;;;;;;;;;;;5074129;28;19909;-46
2022/04/09 08:34:13;;;;;;;;;;;;;;;;;;5074033;28;19977;-45
2022/04/09 08:36:39;;;;;;;;;;;;;;;;;;5073946;28;19909;-46
2022/04/09 08:39:05;;;;;;;;;;;;;;;;;;5073759;28;19920;-45
2022/04/09 08:41:31;;;;;;;;;;;;;;;;;;5073811;28;20042;-47
2022/04/09 08:43:56;;;;;;;;;;;;;;;;;;5073713;28;20393;-46
2022/04/09 08:46:22;;;;;;;;;;;;;;;;;;5073767;28;19955;-45
2022/04/09 08:48:49;;;;;;;;;;;;;;;;;;5073694;28;19909;-44
2022/04/09 08:51:15;;;;;;;;;;;;;;;;;;5073677;28;20053;-45
2022/04/09 08:53:40;;;;;;;;;;;;;;;;;;5073820;28;19975;-45
2022/04/09 08:56:07;;;;;;;;;;;;;;;;;;5073568;28;19909;-46
2022/04/09 08:58:33;;;;;;;;;;;;;;;;;;5073480;28;19915;-45
2022/04/09 09:00:59;;;;;;;;;;;;;;;;;;5073391;28;20398;-45
2022/04/09 09:03:25;;;;;;;;;;;;;;;;;;5073367;28;19915;-46
2022/04/09 09:05:52;;;;;;;;;;;;;;;;;;5073348;28;19920;-45
2022/04/09 09:08:18;;;;;;;;;;;;;;;;;;5073436;28;20366;-45
2022/04/09 09:10:44;;;;;;;;;;;;;;;;;;5073338;28;19970;-46
2022/04/09 09:13:10;;;;;;;;;;;;;;;;;;5073255;28;19912;-45
2022/04/09 09:15:36;;;;;;;;;;;;;;;;;;5073175;28;19966;-46
2022/04/09 09:18:02;;;;;;;;;;;;;;;;;;5073166;28;20431;-46
2022/04/09 09:20:27;;;;;;;;;;;;;;;;;;5072963;28;19916;-46
2022/04/09 09:22:53;;;;;;;;;;;;;;;;;;5072935;28;20008;-46
2022/04/09 09:25:19;;;;;;;;;;;;;;;;;;5073028;28;20375;-46
2022/04/09 09:27:45;;;;;;;;;;;;;;;;;;5072910;28;19915;-47
2022/04/09 09:30:11;;;;;;;;;;;;;;;;;;5073078;28;19924;-47
2022/04/09 09:32:41;;;;;;;;;;;;;;;;;;5073174;28;19908;-46
2022/04/09 09:35:06;;;;;;;;;;;;;;;;;;5073012;28;20251;-46
2022/04/09 09:37:32;;;;;;;;;;;;;;;;;;5072765;28;19912;-47
2022/04/09 09:39:58;;;;;;;;;;;;;;;;;;5073018;28;19923;-45
2022/04/09 09:42:25;;;;;;;;;;;;;;;;;;5073226;28;19916;-46
2022/04/09 09:44:50;;;;;;;;;;;;;;;;;;5073003;28;19912;-46
2022/04/09 09:47:16;;;;;;;;;;;;;;;;;;5072922;28;19908;-47
2022/04/09 09:49:42;;;;;;;;;;;;;;;;;;5072900;28;19956;-46
2022/04/09 09:52:11;;;;;;;;;;;;;;;;;;5072829;28;19939;-47
2022/04/09 09:54:37;;;;;;;;;;;;;;;;;;5072806;28;19916;-46
2022/04/09 09:57:03;;;;;;;;;;;;;;;;;;5072704;28;19909;-47
2022/04/09 09:59:30;;;;;;;;;;;;;;;;;;5072747;28;19909;-47
2022/04/09 10:01:56;;;;;;;;;;;;;;;;;;5072717;28;20294;-46
2022/04/09 10:04:22;;;;;;;;;;;;;;;;;;5073101;28;19908;-48
2022/04/09 10:06:48;;;;;;;;;;;;;;;;;;5072726;28;19908;-47
2022/04/09 10:09:15;;;;;;;;;;;;;;;;;;5072709;28;19908;-51
2022/04/09 10:11:46;;;;;;;;;;;;;;;;;;5072643;28;19931;-48
2022/04/09 10:14:13;;;;;;;;;;;;;;;;;;5079238;28;20267;-47
2022/04/09 10:16:39;;;;;;;;;;;;;;;;;;5072659;28;19915;-49
2022/04/09 10:19:05;;;;;;;;;;;;;;;;;;5072884;28;19909;-47
2022/04/09 10:21:31;;;;;;;;;;;;;;;;;;5072583;28;19951;-48
2022/04/09 10:23:57;;;;;;;;;;;;;;;;;;5072569;28;20375;-46
2022/04/09 10:26:23;;;;;;;;;;;;;;;;;;5072828;28;19915;-48
2022/04/09 10:28:50;;;;;;;;;;;;;;;;;;5072794;28;19912;-49
2022/04/09 10:31:15;;;;;;;;;;;;;;;;;;5072546;28;19909;-48
2022/04/09 10:33:41;;;;;;;;;;;;;;;;;;5072442;28;19954;-48
2022/04/09 10:36:07;;;;;;;;;;;;;;;;;;5072429;28;19909;-47
2022/04/09 10:38:36;;;;;;;;;;;;;;;;;;5072191;28;19920;-47
2022/04/09 10:41:02;;;;;;;;;;;;;;;;;;5075030;28;20021;-48
2022/04/09 10:43:29;;;;;;;;;;;;;;;;;;5076492;28;20393;-48
2022/04/09 10:45:55;;;;;;;;;;;;;;;;;;5076308;28;19954;-48
2022/04/09 10:48:21;;;;;;;;;;;;;;;;;;5076126;28;20372;-47
2022/04/09 10:50:47;;;;;;;;;;;;;;;;;;5076166;28;19916;-48
2022/04/09 10:53:13;;;;;;;;;;;;;;;;;;5076143;28;20205;-49
2022/04/09 10:55:39;;;;;;;;;;;;;;;;;;5076164;28;19909;-48
2022/04/09 10:58:08;;;;;;;;;;;;;;;;;;5075994;28;19970;-48
2022/04/09 11:00:35;;;;;;;;;;;;;;;;;;5076326;28;20338;-48
2022/04/09 11:03:01;;;;;;;;;;;;;;;;;;5075974;28;19913;-48
2022/04/09 11:05:27;;;;;;;;;;;;;;;;;;5075827;28;19935;-48
2022/04/09 11:07:52;;;;;;;;;;;;;;;;;;5075872;28;19995;-48
2022/04/09 11:10:18;;;;;;;;;;;;;;;;;;5075658;28;19977;-49
2022/04/09 11:12:45;;;;;;;;;;;;;;;;;;5075797;28;19944;-48
2022/04/09 11:15:11;;;;;;;;;;;;;;;;;;5075705;28;20450;-49
2022/04/09 11:17:37;;;;;;;;;;;;;;;;;;5075722;28;19951;-48
2022/04/09 11:20:03;;;;;;;;;;;;;;;;;;5075939;28;20223;-47
2022/04/09 11:22:29;;;;;;;;;;;;;;;;;;5075633;28;19955;-48
2022/04/09 11:24:55;;;;;;;;;;;;;;;;;;5075585;28;19931;-49
2022/04/09 11:27:20;;;;;;;;;;;;;;;;;;5075492;28;19920;-48
2022/04/09 11:29:46;;;;;;;;;;;;;;;;;;5075445;28;19916;-47
2022/04/09 11:32:12;;;;;;;;;;;;;;;;;;5075419;28;20393;-47
2022/04/09 11:34:38;;;;;;;;;;;;;;;;;;5075439;28;19912;-47
2022/04/09 11:37:04;;;;;;;;;;;;;;;;;;5075232;28;19912;-48
2022/04/09 11:39:30;;;;;;;;;;;;;;;;;;5075363;28;20298;-48
2022/04/09 11:41:56;;;;;;;;;;;;;;;;;;5075499;28;19909;-49
2022/04/09 11:44:22;;;;;;;;;;;;;;;;;;5075225;28;19908;-49
2022/04/09 11:46:47;;;;;;;;;;;;;;;;;;5075180;28;19916;-49
2022/04/09 11:49:13;;;;;;;;;;;;;;;;;;5075160;28;19967;-49
2022/04/09 11:51:39;;;;;;;;;;;;;;;;;;5073728;28;19913;-48
2022/04/09 11:54:05;;;;;;;;;;;;;;;;;;5075037;28;19908;-49
2022/04/09 11:56:31;;;;;;;;;;;;;;;;;;5074931;28;20211;-48
2022/04/09 11:58:57;;;;;;;;;;;;;;;;;;5074984;28;20182;-46
2022/04/09 12:01:23;;;;;;;;;;;;;;;;;;5074647;28;19917;-47
2022/04/09 12:03:49;;;;;;;;;;;;;;;;;;5074859;28;19958;-47
2022/04/09 12:06:15;;;;;;;;;;;;;;;;;;5074771;28;19993;-48
2022/04/09 12:08:40;;;;;;;;;;;;;;;;;;5074793;28;19916;-47
2022/04/09 12:11:06;;;;;;;;;;;;;;;;;;5074802;28;19946;-48
2022/04/09 12:13:33;;;;;;;;;;;;;;;;;;5074592;28;20390;-49
2022/04/09 12:15:58;;;;;;;;;;;;;;;;;;5074630;28;20050;-48
2022/04/09 12:18:24;;;;;;;;;;;;;;;;;;5074639;28;19960;-49
2022/04/09 12:20:50;;;;;;;;;;;;;;;;;;5074445;28;19920;-48
2022/04/09 12:23:16;;;;;;;;;;;;;;;;;;5056770;28;19973;-49
2022/04/09 12:25:47;;;;;;;;;;;;;;;;;;5074684;28;19909;-51
2022/04/09 12:28:12;;;;;;;;;;;;;;;;;;5074463;28;19908;-48
2022/04/09 12:30:41;;;;;;;;;;;;;;;;;;5074302;28;19908;-48
2022/04/09 12:33:07;;;;;;;;;;;;;;;;;;5074264;28;19909;-48
2022/04/09 12:35:33;;;;;;;;;;;;;;;;;;5074164;28;20264;-47
2022/04/09 12:38:00;;;;;;;;;;;;;;;;;;5073932;28;19921;-45
2022/04/09 12:40:29;;;;;;;;;;;;;;;;;;5074365;28;19916;-46
2022/04/09 12:42:55;;;;;;;;;;;;;;;;;;5074013;28;19928;-45
2022/04/09 12:45:23;;;;;;;;;;;;;;;;;;5074107;28;20328;-46
2022/04/09 12:47:49;;;;;;;;;;;;;;;;;;5074249;28;19909;-46
2022/04/09 12:50:15;;;;;;;;;;;;;;;;;;5073861;28;20390;-47
2022/04/09 12:52:41;;;;;;;;;;;;;;;;;;5073776;28;19912;-45
2022/04/09 12:55:07;;;;;;;;;;;;;;;;;;5073656;28;19908;-45
2022/04/09 12:57:35;;;;;;;;;;;;;;;;;;5073609;28;19915;-45
2022/04/09 13:00:01;;;;;;;;;;;;;;;;;;5073825;28;20022;-45
2022/04/09 13:02:26;;;;;;;;;;;;;;;;;;5073387;28;19993;-46
2022/04/09 13:04:53;;;;;;;;;;;;;;;;;;5073571;28;19909;-45
2022/04/09 13:07:18;;;;;;;;;;;;;;;;;;5073655;28;20417;-46
2022/04/09 13:09:44;;;;;;;;;;;;;;;;;;5073578;28;19917;-46
2022/04/09 13:12:11;;;;;;;;;;;;;;;;;;5073621;28;19913;-46
2022/04/09 13:14:37;;;;;;;;;;;;;;;;;;5073568;28;20329;-46
2022/04/09 13:17:03;;;;;;;;;;;;;;;;;;5073395;28;19908;-46
2022/04/09 13:19:30;;;;;;;;;;;;;;;;;;5073309;28;19952;-46
2022/04/09 13:21:56;;;;;;;;;;;;;;;;;;5073353;28;20374;-45
2022/04/09 13:24:21;;;;;;;;;;;;;;;;;;5073510;28;19983;-46
2022/04/09 13:26:47;;;;;;;;;;;;;;;;;;5073186;28;20367;-45
2022/04/09 13:29:13;;;;;;;;;;;;;;;;;;5073215;28;19908;-45
2022/04/09 13:31:39;;;;;;;;;;;;;;;;;;5073106;28;19924;-45
2022/04/09 13:34:05;;;;;;;;;;;;;;;;;;5073110;28;20093;-46
2022/04/09 13:36:31;;;;;;;;;;;;;;;;;;5073185;28;19912;-45
2022/04/09 13:38:57;;;;;;;;;;;;;;;;;;5072754;28;19921;-44
2022/04/09 13:41:26;;;;;;;;;;;;;;;;;;5073028;28;19917;-45
2022/04/09 13:43:54;;;;;;;;;;;;;;;;;;5072544;28;20306;-45
2022/04/09 13:46:20;;;;;;;;;;;;;;;;;;5073041;28;19954;-45
2022/04/09 13:48:45;;;;;;;;;;;;;;;;;;5072916;28;19912;-46
2022/04/09 13:51:14;;;;;;;;;;;;;;;;;;5072928;28;20003;-46
2022/04/09 13:53:39;;;;;;;;;;;;;;;;;;5072911;28;19909;-46
2022/04/09 13:56:05;;;;;;;;;;;;;;;;;;5072806;28;19909;-46
2022/04/09 13:58:31;;;;;;;;;;;;;;;;;;5072846;28;19915;-46
2022/04/09 14:00:57;;;;;;;;;;;;;;;;;;5072678;28;20011;-46
2022/04/09 14:03:23;;;;;;;;;;;;;;;;;;5072656;28;19908;-45
2022/04/09 14:05:49;;;;;;;;;;;;;;;;;;5072831;28;20016;-44
2022/04/09 14:08:15;;;;;;;;;;;;;;;;;;5072646;28;19909;-46
2022/04/09 14:10:41;;;;;;;;;;;;;;;;;;5054719;28;19913;-45
2022/04/09 14:13:07;;;;;;;;;;;;;;;;;;5072525;28;19916;-45
2022/04/09 14:15:33;;;;;;;;;;;;;;;;;;5071806;28;19909;-45
2022/04/09 14:17:59;;;;;;;;;;;;;;;;;;5072598;28;20569;-46
2022/04/09 14:20:25;;;;;;;;;;;;;;;;;;5072721;28;19916;-46
2022/04/09 14:22:51;;;;;;;;;;;;;;;;;;5072596;28;19935;-45
2022/04/09 14:25:16;;;;;;;;;;;;;;;;;;5072588;28;19908;-45
2022/04/09 14:27:42;;;;;;;;;;;;;;;;;;5072577;28;19916;-46
2022/04/09 14:30:09;;;;;;;;;;;;;;;;;;5072423;28;19912;-45
2022/04/09 14:32:34;;;;;;;;;;;;;;;;;;5072493;28;19913;-46
2022/04/09 14:35:00;;;;;;;;;;;;;;;;;;5072440;28;20022;-46
2022/04/09 14:37:27;;;;;;;;;;;;;;;;;;5072125;28;20299;-46
2022/04/09 14:39:53;;;;;;;;;;;;;;;;;;5072390;28;19928;-46
2022/04/09 14:42:19;;;;;;;;;;;;;;;;;;5072249;28;19908;-46
2022/04/09 14:44:44;;;;;;;;;;;;;;;;;;5072370;28;19908;-45
2022/04/09 14:47:10;;;;;;;;;;;;;;;;;;5072297;28;19950;-45
2022/04/09 14:49:36;;;;;;;;;;;;;;;;;;5072300;28;19912;-45
2022/04/09 14:52:02;;;;;;;;;;;;;;;;;;5072236;28;19908;-45
2022/04/09 14:54:28;;;;;;;;;;;;;;;;;;5072472;28;20028;-45
2022/04/09 14:56:54;;;;;;;;;;;;;;;;;;5072123;28;20378;-46
2022/04/09 14:59:20;;;;;;;;;;;;;;;;;;5072139;28;19912;-47
2022/04/09 15:01:46;;;;;;;;;;;;;;;;;;5072392;28;19923;-46
2022/04/09 15:04:12;;;;;;;;;;;;;;;;;;5072170;28;19908;-45
2022/04/09 15:06:38;;;;;;;;;;;;;;;;;;5072475;28;19962;-46
2022/04/09 15:09:04;;;;;;;;;;;;;;;;;;5072075;28;19909;-45
2022/04/09 15:11:30;;;;;;;;;;;;;;;;;;5071965;28;20398;-46
2022/04/09 15:13:55;;;;;;;;;;;;;;;;;;5071907;28;19909;-44
2022/04/09 15:16:21;;;;;;;;;;;;;;;;;;5071906;28;19955;-45
2022/04/09 15:18:47;;;;;;;;;;;;;;;;;;5072050;28;19916;-45
2022/04/09 15:21:13;;;;;;;;;;;;;;;;;;5071901;28;20434;-49
2022/04/09 15:23:39;;;;;;;;;;;;;;;;;;5072213;28;19916;-48
2022/04/09 15:26:05;;;;;;;;;;;;;;;;;;5072707;28;20282;-48
2022/04/09 15:28:33;;;;;;;;;;;;;;;;;;5075754;28;19916;-47
2022/04/09 15:30:59;;;;;;;;;;;;;;;;;;5075527;28;19931;-46
2022/04/09 15:33:25;;;;;;;;;;;;;;;;;;5075665;28;20366;-47
2022/04/09 15:35:51;;;;;;;;;;;;;;;;;;5075364;28;20410;-47
2022/04/09 15:38:16;;;;;;;;;;;;;;;;;;5075056;28;19920;-47
2022/04/09 15:40:42;;;;;;;;;;;;;;;;;;5074703;28;20385;-47
2022/04/09 15:43:08;;;;;;;;;;;;;;;;;;5074750;28;19908;-46
2022/04/09 15:45:34;;;;;;;;;;;;;;;;;;5074819;28;20015;-48
2022/04/09 15:48:00;;;;;;;;;;;;;;;;;;5075131;28;19909;-47
2022/04/09 15:50:26;;;;;;;;;;;;;;;;;;5074778;28;20279;-48
2022/04/09 15:52:52;;;;;;;;;;;;;;;;;;5074800;28;19909;-47
2022/04/09 15:55:18;;;;;;;;;;;;;;;;;;5074815;28;20282;-47
2022/04/09 15:57:44;;;;;;;;;;;;;;;;;;5074992;28;20244;-47
2022/04/09 16:00:10;;;;;;;;;;;;;;;;;;5074822;28;19920;-47
2022/04/09 16:02:38;;;;;;;;;;;;;;;;;;5056490;28;19909;-47
2022/04/09 16:05:04;;;;;;;;;;;;;;;;;;5074576;28;19908;-48
2022/04/09 16:07:30;;;;;;;;;;;;;;;;;;5074489;28;20363;-47
2022/04/09 16:09:57;;;;;;;;;;;;;;;;;;5074482;28;19962;-46
2022/04/09 16:12:23;;;;;;;;;;;;;;;;;;5074691;28;20283;-48
2022/04/09 16:14:49;;;;;;;;;;;;;;;;;;5074446;28;19909;-48
2022/04/09 16:17:15;;;;;;;;;;;;;;;;;;5074692;28;19916;-47
2022/04/09 16:19:41;;;;;;;;;;;;;;;;;;5074231;28;20323;-46
2022/04/09 16:22:06;;;;;;;;;;;;;;;;;;5074338;28;19909;-46
2022/04/09 16:24:32;;;;;;;;;;;;;;;;;;5074346;28;19909;-45
2022/04/09 16:26:59;;;;;;;;;;;;;;;;;;5074440;28;19915;-46
2022/04/09 16:29:25;;;;;;;;;;;;;;;;;;5074387;28;19931;-45
2022/04/09 16:31:51;;;;;;;;;;;;;;;;;;5074411;28;20355;-46
2022/04/09 16:34:17;;;;;;;;;;;;;;;;;;5074200;28;19908;-47
2022/04/09 16:36:43;;;;;;;;;;;;;;;;;;5073960;28;20008;-46